Time;durP1;ratioP1;P1;durP2;ratioP2;P2;SDS_P1;SDS_P2;PMS_P1;PMS_P2;Temp;Humidity;BMP_temperature;BMP_pressure;BME280_temperature;BME280_humidity;BME280_pressure;Samples;Min_cycle;Max_cycle;Signal;HPM_P1;HPM_P2
2023/08/07 00:00:01;;;;;;;10.20;6.40;;;;;;;14.23;100.00;97505.27;135057;1302;22014;-82
2023/08/07 00:03:02;;;;;;;7.50;6.80;;;;;;;14.19;100.00;97504.31;135051;1302;22236;-82
2023/08/07 00:06:03;;;;;;;7.10;6.40;;;;;;;14.17;100.00;97502.97;135030;1302;22106;-81
2023/08/07 00:09:04;;;;;;;6.10;4.40;;;;;;;14.18;100.00;97506.27;134984;1302;22205;-80
2023/08/07 00:12:05;;;;;;;6.30;5.30;;;;;;;14.18;100.00;97501.21;135000;1302;22086;-81
2023/08/07 00:15:06;;;;;;;6.40;5.80;;;;;;;14.17;100.00;97497.38;135062;1302;22128;-82
2023/08/07 00:18:08;;;;;;;8.20;6.30;;;;;;;14.14;100.00;97497.25;135045;1302;22084;-82
2023/08/07 00:21:09;;;;;;;6.70;6.00;;;;;;;14.11;100.00;97491.06;135297;1301;22038;-85
2023/08/07 00:24:10;;;;;;;7.60;7.00;;;;;;;14.10;100.00;97488.98;135244;1301;22057;-82
2023/08/07 00:27:12;;;;;;;8.90;5.90;;;;;;;14.09;100.00;97480.60;135203;1301;22073;-82
2023/08/07 00:30:13;;;;;;;6.10;5.50;;;;;;;14.05;100.00;97484.19;135250;1302;22080;-83
2023/08/07 00:33:14;;;;;;;12.60;7.00;;;;;;;14.00;100.00;97487.96;135187;1301;22055;-82
2023/08/07 00:36:15;;;;;;;6.70;6.20;;;;;;;13.96;100.00;97490.88;135193;1301;22066;-82
2023/08/07 00:39:16;;;;;;;8.70;7.90;;;;;;;13.94;100.00;97495.48;135107;1302;22055;-83
2023/08/07 00:42:20;;;;;;;8.80;6.30;;;;;;;13.96;100.00;97497.85;135166;1301;22076;-82
2023/08/07 00:45:21;;;;;;;6.80;6.20;;;;;;;13.98;100.00;97496.40;135214;1301;22085;-82
2023/08/07 00:48:22;;;;;;;8.10;6.00;;;;;;;13.99;100.00;97500.25;135183;1301;22517;-81
2023/08/07 00:51:23;;;;;;;7.90;6.50;;;;;;;14.00;100.00;97495.67;135195;1301;22395;-81
2023/08/07 00:54:24;;;;;;;14.80;5.00;;;;;;;13.99;100.00;97500.41;135199;1301;22076;-82
2023/08/07 00:57:25;;;;;;;8.80;7.90;;;;;;;13.99;100.00;97501.63;135174;1301;22121;-82
2023/08/07 01:00:26;;;;;;;9.20;7.60;;;;;;;14.00;100.00;97495.30;135164;1301;22102;-83
2023/08/07 01:03:27;;;;;;;10.90;7.60;;;;;;;14.02;100.00;97500.16;135156;1301;22079;-82
2023/08/07 01:06:28;;;;;;;8.20;5.80;;;;;;;14.02;100.00;97490.02;135197;1301;22082;-82
2023/08/07 01:09:29;;;;;;;7.60;5.80;;;;;;;14.02;100.00;97478.66;135187;1301;22105;-83
2023/08/07 01:12:30;;;;;;;8.20;7.60;;;;;;;14.03;100.00;97471.28;135172;1301;22097;-83
2023/08/07 01:15:31;;;;;;;5.60;5.00;;;;;;;14.03;100.00;97466.23;135188;1301;22132;-83
2023/08/07 01:18:32;;;;;;;8.50;7.70;;;;;;;13.97;100.00;97461.80;135180;1301;22042;-81
2023/08/07 01:21:33;;;;;;;8.70;7.80;;;;;;;13.94;100.00;97454.02;135233;1301;22066;-81
2023/08/07 01:24:34;;;;;;;11.50;10.50;;;;;;;13.92;100.00;97451.44;135204;1301;22147;-82
2023/08/07 01:27:36;;;;;;;10.60;9.80;;;;;;;13.89;100.00;97449.23;135201;1301;22057;-81
2023/08/07 01:30:37;;;;;;;9.60;8.90;;;;;;;13.85;100.00;97450.17;135228;1301;22044;-81
2023/08/07 01:33:38;;;;;;;10.10;7.60;;;;;;;13.81;100.00;97459.02;135180;1301;22153;-82
2023/08/07 01:36:39;;;;;;;9.00;8.20;;;;;;;13.81;100.00;97468.63;135200;1302;22091;-81
2023/08/07 01:39:41;;;;;;;7.60;6.80;;;;;;;13.80;100.00;97476.33;135204;1302;22567;-82
2023/08/07 01:42:42;;;;;;;9.00;8.10;;;;;;;13.78;100.00;97486.02;135212;1301;22097;-82
2023/08/07 01:45:43;;;;;;;7.90;7.10;;;;;;;13.78;100.00;97494.41;135231;1302;22093;-81
2023/08/07 01:48:44;;;;;;;6.10;5.10;;;;;;;13.77;100.00;97498.27;135221;1302;22050;-81
2023/08/07 01:51:45;;;;;;;5.90;5.40;;;;;;;13.76;100.00;97499.52;135199;1302;22532;-81
2023/08/07 01:54:46;;;;;;;7.70;5.40;;;;;;;13.75;100.00;97506.02;135215;1301;22104;-81
2023/08/07 01:57:47;;;;;;;10.20;5.00;;;;;;;13.72;100.00;97508.70;135197;1301;22046;-81
2023/08/07 02:00:48;;;;;;;8.60;4.60;;;;;;;13.68;100.00;97507.20;135365;1302;22056;-81
2023/08/07 02:03:49;;;;;;;10.70;4.20;;;;;;;13.66;100.00;97502.71;135331;1301;22077;-81
2023/08/07 02:06:50;;;;;;;5.40;4.00;;;;;;;13.63;100.00;97503.12;135335;1301;22531;-81
2023/08/07 02:09:51;;;;;;;6.10;5.20;;;;;;;13.61;100.00;97500.89;135284;1301;22094;-81
2023/08/07 02:12:52;;;;;;;6.90;5.10;;;;;;;13.57;100.00;97497.65;135263;1301;22070;-80
2023/08/07 02:15:53;;;;;;;7.40;4.60;;;;;;;13.53;100.00;97494.77;135209;1301;22060;-81
2023/08/07 02:18:54;;;;;;;5.00;4.50;;;;;;;13.49;100.00;97490.85;135192;1301;22085;-81
2023/08/07 02:21:55;;;;;;;5.20;4.20;;;;;;;13.43;100.00;97495.17;135198;1301;22077;-80
2023/08/07 02:24:56;;;;;;;5.90;5.10;;;;;;;13.38;100.00;97496.65;135229;1301;22118;-78
2023/08/07 02:27:57;;;;;;;6.70;4.70;;;;;;;13.36;100.00;97495.48;135267;1301;22074;-79
2023/08/07 02:30:59;;;;;;;7.40;5.70;;;;;;;13.33;100.00;97490.83;135199;1301;22588;-81
2023/08/07 02:34:00;;;;;;;13.10;6.80;;;;;;;13.31;100.00;97493.14;135227;1301;22123;-82
2023/08/07 02:37:01;;;;;;;11.70;7.00;;;;;;;13.27;100.00;97493.04;135199;1301;22143;-81
2023/08/07 02:40:02;;;;;;;7.20;6.60;;;;;;;13.24;100.00;97499.91;135179;1301;22085;-81
2023/08/07 02:43:03;;;;;;;7.10;5.10;;;;;;;13.22;100.00;97502.23;135175;1301;22120;-81
2023/08/07 02:46:04;;;;;;;6.50;4.20;;;;;;;13.19;100.00;97500.89;135203;1301;22093;-80
2023/08/07 02:49:05;;;;;;;6.20;4.00;;;;;;;13.17;100.00;97494.98;135177;1301;22578;-81
2023/08/07 02:52:06;;;;;;;6.50;4.30;;;;;;;13.15;100.00;97499.02;135190;1301;22056;-82
2023/08/07 02:55:07;;;;;;;6.70;4.80;;;;;;;13.13;100.00;97503.09;135180;1301;22095;-81
2023/08/07 02:58:08;;;;;;;5.10;4.70;;;;;;;13.12;100.00;97504.68;135209;1301;22112;-82
2023/08/07 03:01:09;;;;;;;9.30;4.30;;;;;;;13.09;100.00;97506.30;135206;1301;22083;-82
2023/08/07 03:04:13;;;;;;;4.90;4.30;;;;;;;13.05;100.00;97506.02;135191;1301;22079;-82
2023/08/07 03:07:14;;;;;;;5.20;4.10;;;;;;;13.04;100.00;97500.62;135204;1301;21974;-82
2023/08/07 03:10:15;;;;;;;7.60;3.90;;;;;;;13.03;100.00;97500.48;135224;1301;22093;-82
2023/08/07 03:13:16;;;;;;;3.80;3.50;;;;;;;13.00;100.00;97505.23;135178;1301;22155;-82
2023/08/07 03:16:17;;;;;;;5.90;4.50;;;;;;;12.99;100.00;97509.26;135162;1301;22096;-81
2023/08/07 03:19:21;;;;;;;7.90;4.70;;;;;;;12.99;100.00;97514.49;135166;1301;22117;-81
2023/08/07 03:22:22;;;;;;;9.20;7.10;;;;;;;13.01;100.00;97512.21;135138;1301;22106;-82
2023/08/07 03:25:23;;;;;;;6.10;5.60;;;;;;;13.03;100.00;97509.73;135162;1301;22552;-81
2023/08/07 03:28:24;;;;;;;7.90;7.20;;;;;;;13.04;100.00;97510.59;135153;1301;22130;-82
2023/08/07 03:31:25;;;;;;;7.90;5.30;;;;;;;13.04;100.00;97505.34;135180;1301;22093;-82
2023/08/07 03:34:26;;;;;;;12.00;8.20;;;;;;;13.05;100.00;97504.63;135149;1299;22136;-82
2023/08/07 03:37:27;;;;;;;9.20;6.30;;;;;;;13.07;100.00;97503.54;135212;1301;22091;-82
2023/08/07 03:40:28;;;;;;;10.40;6.80;;;;;;;13.12;100.00;97505.89;135193;1301;22448;-83
2023/08/07 03:43:29;;;;;;;6.20;5.00;;;;;;;13.18;100.00;97508.06;135180;1301;22458;-82
2023/08/07 03:46:31;;;;;;;6.30;4.30;;;;;;;13.25;100.00;97507.05;135113;1301;22670;-79
2023/08/07 03:49:32;;;;;;;4.80;4.40;;;;;;;13.33;100.00;97508.46;135158;1301;22139;-81
2023/08/07 03:52:33;;;;;;;5.80;4.20;;;;;;;13.38;100.00;97515.52;134887;1301;22121;-81
2023/08/07 03:55:34;;;;;;;4.60;3.70;;;;;;;13.43;100.00;97527.31;135097;1301;22132;-80
2023/08/07 03:58:35;;;;;;;5.90;4.90;;;;;;;13.49;100.00;97532.25;135025;1283;22144;-81
2023/08/07 04:01:36;;;;;;;7.90;4.30;;;;;;;13.56;100.00;97543.48;135085;1301;22112;-82
2023/08/07 04:04:37;;;;;;;5.40;4.80;;;;;;;13.62;100.00;97549.64;135061;1301;22150;-81
2023/08/07 04:07:38;;;;;;;8.40;4.10;;;;;;;13.69;100.00;97555.42;135030;1301;22506;-83
2023/08/07 04:10:39;;;;;;;5.40;4.90;;;;;;;13.79;100.00;97562.73;135082;1301;22322;-82
2023/08/07 04:13:40;;;;;;;4.10;3.70;;;;;;;13.87;100.00;97564.86;135069;1301;22142;-83
2023/08/07 04:16:42;;;;;;;6.10;4.20;;;;;;;13.92;100.00;97566.15;135031;1301;22094;-82
2023/08/07 04:19:43;;;;;;;4.00;3.60;;;;;;;13.97;100.00;97569.20;135014;1301;22157;-83
2023/08/07 04:22:44;;;;;;;4.10;3.80;;;;;;;14.05;100.00;97573.58;135008;1290;22134;-82
2023/08/07 04:25:46;;;;;;;4.00;3.20;;;;;;;14.13;100.00;97575.31;135061;1301;22132;-80
2023/08/07 04:28:47;;;;;;;8.10;3.80;;;;;;;14.24;100.00;97570.00;135108;1301;22623;-81
2023/08/07 04:31:48;;;;;;;5.40;3.20;;;;;;;14.38;100.00;97571.77;134880;1301;22548;-81
2023/08/07 04:34:50;;;;;;;4.20;3.30;;;;;;;14.52;100.00;97571.45;135090;1298;22116;-81
2023/08/07 04:37:52;;;;;;;9.90;3.10;;;;;;;14.69;100.00;97572.80;134819;1301;22035;-81
2023/08/07 04:40:53;;;;;;;3.80;3.40;;;;;;;14.77;100.00;97572.80;135060;1301;22139;-81
2023/08/07 04:43:54;;;;;;;5.30;3.10;;;;;;;14.82;100.00;97576.52;135003;1301;22203;-80
2023/08/07 04:46:56;;;;;;;4.30;3.20;;;;;;;14.93;100.00;97577.65;135038;1301;22116;-81
2023/08/07 04:49:57;;;;;;;6.70;3.20;;;;;;;15.05;100.00;97576.64;135037;1301;22122;-82
2023/08/07 04:52:58;;;;;;;5.40;3.80;;;;;;;15.10;100.00;97579.48;135046;1301;22117;-81
2023/08/07 04:55:59;;;;;;;4.50;3.50;;;;;;;15.15;100.00;97579.71;135032;1301;22106;-80
2023/08/07 04:59:01;;;;;;;9.40;5.00;;;;;;;15.17;100.00;97585.60;135051;1298;22124;-81
2023/08/07 05:02:02;;;;;;;15.40;4.20;;;;;;;15.19;100.00;97586.94;134986;1301;22085;-81
2023/08/07 05:05:04;;;;;;;66.10;7.70;;;;;;;15.31;100.00;97590.13;134948;1301;22139;-81
2023/08/07 05:08:05;;;;;;;6.40;3.60;;;;;;;15.55;100.00;97581.98;134954;1301;22581;-80
2023/08/07 05:11:07;;;;;;;4.50;4.10;;;;;;;15.66;100.00;97581.33;134975;1301;22592;-83
2023/08/07 05:14:08;;;;;;;4.50;3.80;;;;;;;15.80;100.00;97581.47;135005;1301;22125;-77
2023/08/07 05:17:09;;;;;;;4.30;3.60;;;;;;;16.00;100.00;97580.35;135022;1301;22905;-81
2023/08/07 05:20:10;;;;;;;4.00;3.50;;;;;;;16.23;100.00;97577.86;134802;1301;22108;-81
2023/08/07 05:23:11;;;;;;;4.70;3.50;;;;;;;16.43;100.00;97582.70;134940;1301;22093;-81
2023/08/07 05:26:13;;;;;;;4.70;4.00;;;;;;;16.45;100.00;97584.56;134981;1301;22134;-80
2023/08/07 05:29:14;;;;;;;4.20;3.30;;;;;;;16.43;100.00;97582.02;134999;1301;22671;-82
2023/08/07 05:32:15;;;;;;;6.90;3.80;;;;;;;16.41;100.00;97583.63;135026;1301;22193;-81
2023/08/07 05:35:16;;;;;;;6.70;4.50;;;;;;;16.43;100.00;97591.11;135023;1301;22149;-83
2023/08/07 05:38:17;;;;;;;13.70;4.10;;;;;;;16.55;100.00;97597.63;134956;1301;22861;-81
2023/08/07 05:41:18;;;;;;;7.00;3.70;;;;;;;16.63;100.00;97606.14;134956;1301;22197;-82
2023/08/07 05:44:19;;;;;;;3.90;3.00;;;;;;;16.52;100.00;97607.38;134983;1301;22127;-81
2023/08/07 05:47:20;;;;;;;4.60;3.70;;;;;;;16.36;100.00;97609.09;134984;1301;22082;-82
2023/08/07 05:50:22;;;;;;;67.10;6.30;;;;;;;16.26;100.00;97615.35;134981;1301;22144;-83
2023/08/07 05:53:23;;;;;;;5.90;4.10;;;;;;;16.21;100.00;97612.52;134946;1298;22140;-81
2023/08/07 05:56:24;;;;;;;9.10;4.60;;;;;;;16.18;100.00;97611.75;134990;1301;22139;-83
2023/08/07 05:59:25;;;;;;;5.10;3.60;;;;;;;16.30;100.00;97611.19;134997;1301;22210;-82
2023/08/07 06:02:26;;;;;;;4.50;3.70;;;;;;;16.40;100.00;97617.58;135054;1301;22623;-82
2023/08/07 06:05:28;;;;;;;5.60;3.40;;;;;;;16.58;100.00;97616.67;135012;1301;22217;-81
2023/08/07 06:08:29;;;;;;;6.70;3.20;;;;;;;16.77;100.00;97622.09;134972;1301;22153;-83
2023/08/07 06:11:30;;;;;;;4.80;3.10;;;;;;;16.83;100.00;97620.46;134985;1301;22111;-81
2023/08/07 06:14:31;;;;;;;3.80;3.00;;;;;;;17.03;100.00;97618.41;135019;1301;22177;-81
2023/08/07 06:17:32;;;;;;;3.40;3.10;;;;;;;17.09;100.00;97624.51;134976;1301;22103;-83
2023/08/07 06:20:33;;;;;;;3.20;2.90;;;;;;;17.17;100.00;97627.95;134982;1301;22170;-82
2023/08/07 06:23:34;;;;;;;3.40;3.10;;;;;;;17.16;100.00;97632.00;135022;1301;22100;-83
2023/08/07 06:26:35;;;;;;;5.10;3.40;;;;;;;17.41;100.00;97632.94;135023;1301;22132;-82
2023/08/07 06:29:36;;;;;;;6.90;4.20;;;;;;;17.63;100.00;97629.36;135060;1301;22607;-83
2023/08/07 06:32:38;;;;;;;9.00;4.20;;;;;;;17.88;100.00;97634.64;135089;1301;22573;-81
2023/08/07 06:35:39;;;;;;;3.50;3.20;;;;;;;17.99;100.00;97636.52;135012;1301;22599;-80
2023/08/07 06:38:40;;;;;;;7.50;3.10;;;;;;;18.03;100.00;97639.52;135061;1301;22199;-82
2023/08/07 06:41:41;;;;;;;7.10;3.50;;;;;;;18.04;100.00;97639.31;135119;1301;22636;-80
2023/08/07 06:44:45;;;;;;;;;;;;;;;17.92;100.00;97639.27;135151;1301;22751;-82
2023/08/07 06:47:46;;;;;;;5.60;3.90;;;;;;;17.86;100.00;97640.73;135191;1301;22150;-79
2023/08/07 06:52:49;;;;;;;5.50;4.00;;;;;;;17.63;100.00;97637.80;132823;1305;544753;-81
2023/08/07 06:55:52;;;;;;;7.70;4.00;;;;;;;17.47;100.00;97639.05;136194;1278;22575;-80
2023/08/07 06:58:54;;;;;;;4.70;3.50;;;;;;;17.50;100.00;97640.38;135606;1289;22408;-81
2023/08/07 07:01:57;;;;;;;6.80;3.50;;;;;;;17.55;100.00;97640.41;135445;1289;22450;-79
2023/08/07 07:05:06;;;;;;;4.90;3.70;;;;;;;17.49;100.00;97644.63;136176;1286;172265;-81
2023/08/07 07:08:09;;;;;;;8.20;3.70;;;;;;;17.53;100.00;97647.48;136377;1286;22250;-80
2023/08/07 07:11:12;;;;;;;4.10;3.80;;;;;;;17.47;100.00;97650.33;136374;1286;22356;-80
2023/08/07 07:14:14;;;;;;;3.80;3.40;;;;;;;17.40;100.00;97654.27;136372;1283;22200;-80
2023/08/07 07:17:17;;;;;;;3.40;3.10;;;;;;;17.33;100.00;97650.98;136181;1286;22541;-79
2023/08/07 07:20:20;;;;;;;9.40;4.50;;;;;;;17.35;100.00;97649.86;136353;1286;22254;-81
2023/08/07 07:23:22;;;;;;;9.20;3.80;;;;;;;17.49;100.00;97651.13;135742;1286;22261;-82
2023/08/07 07:26:25;;;;;;;5.60;4.20;;;;;;;17.65;100.00;97653.92;136424;1286;22321;-80
2023/08/07 07:29:28;;;;;;;12.80;6.20;;;;;;;17.81;100.00;97653.72;136400;1286;22364;-80
2023/08/07 07:32:41;;;;;;;7.80;5.10;;;;;;;17.97;100.00;97662.48;136413;1280;22306;-81
2023/08/07 07:35:43;;;;;;;6.50;4.50;;;;;;;17.99;100.00;97668.92;136388;1286;22246;-81
2023/08/07 07:38:49;;;;;;;4.00;3.40;;;;;;;17.99;100.00;97671.56;136364;1286;22111;-82
2023/08/07 07:41:51;;;;;;;4.30;3.60;;;;;;;17.96;100.00;97671.33;136384;1286;22745;-83
2023/08/07 07:44:55;;;;;;;3.50;3.20;;;;;;;17.89;100.00;97680.36;136416;1286;22174;-83
2023/08/07 07:47:57;;;;;;;9.30;4.20;;;;;;;17.83;100.00;97681.29;136383;1286;22132;-81
2023/08/07 07:51:00;;;;;;;3.50;3.00;;;;;;;17.69;100.00;97684.23;136362;1286;22217;-81
2023/08/07 07:54:03;;;;;;;5.40;3.30;;;;;;;17.52;100.00;97681.30;136255;1281;22221;-81
2023/08/07 07:57:05;;;;;;;7.20;4.50;;;;;;;17.56;100.00;97685.91;136511;1283;22210;-81
2023/08/07 08:00:10;;;;;;;9.40;5.00;;;;;;;17.53;100.00;97688.64;136487;1283;22212;-82
2023/08/07 08:03:12;;;;;;;3.50;3.20;;;;;;;17.43;100.00;97695.66;136441;1283;22621;-79
2023/08/07 08:06:15;;;;;;;5.20;2.80;;;;;;;17.31;100.00;97697.45;136459;1283;22204;-81
2023/08/07 08:09:17;;;;;;;4.70;3.60;;;;;;;17.22;100.00;97702.30;136700;1280;22214;-80
2023/08/07 08:12:20;;;;;;;4.70;3.40;;;;;;;17.13;100.00;97706.63;136763;1280;22970;-80
2023/08/07 08:15:22;;;;;;;5.60;3.50;;;;;;;17.03;100.00;97709.77;136736;1280;22236;-81
2023/08/07 08:18:25;;;;;;;13.60;5.60;;;;;;;17.02;100.00;97712.11;136743;1280;22916;-81
2023/08/07 08:21:28;;;;;;;7.10;3.90;;;;;;;17.07;100.00;97708.96;136735;1280;22745;-81
2023/08/07 08:24:31;;;;;;;9.40;3.40;;;;;;;17.06;100.00;97713.39;136625;1280;22965;-81
2023/08/07 08:27:33;;;;;;;98.00;16.70;;;;;;;16.99;100.00;97711.67;136640;1276;22182;-82
2023/08/07 08:30:36;;;;;;;12.20;4.80;;;;;;;17.04;100.00;97715.04;136753;1280;22248;-80
2023/08/07 08:33:40;;;;;;;3.30;3.00;;;;;;;17.22;100.00;97713.40;136679;1279;22801;-83
2023/08/07 08:36:42;;;;;;;2.80;2.40;;;;;;;17.43;100.00;97715.89;136751;1279;22186;-80
2023/08/07 08:39:44;;;;;;;189.90;14.40;;;;;;;17.83;100.00;97721.77;136736;1279;22191;-83
2023/08/07 08:42:47;;;;;;;11.40;4.00;;;;;;;18.14;100.00;97719.08;136810;1280;22173;-81
2023/08/07 08:45:49;;;;;;;7.70;3.30;;;;;;;18.41;100.00;97720.92;136764;1279;22223;-81
2023/08/07 08:48:52;;;;;;;4.50;2.30;;;;;;;18.71;100.00;97724.39;136771;1279;22681;-83
2023/08/07 08:51:54;;;;;;;3.50;2.60;;;;;;;18.94;100.00;97721.03;136784;1279;22225;-81
2023/08/07 08:54:57;;;;;;;4.10;2.90;;;;;;;19.07;100.00;97725.98;136804;1279;22239;-81
2023/08/07 08:58:00;;;;;;;2.50;2.30;;;;;;;19.02;100.00;97725.98;136789;1279;22540;-80
2023/08/07 09:01:03;;;;;;;3.10;2.30;;;;;;;18.98;100.00;97728.62;136820;1279;22549;-82
2023/08/07 09:04:05;;;;;;;3.10;2.60;;;;;;;18.73;100.00;97732.42;136795;1279;22292;-81
2023/08/07 09:07:08;;;;;;;2.40;2.20;;;;;;;18.58;100.00;97735.23;136837;1279;22170;-81
2023/08/07 09:10:11;;;;;;;4.00;2.00;;;;;;;18.55;100.00;97735.91;136832;1279;22616;-81
2023/08/07 09:13:13;;;;;;;6.50;2.60;;;;;;;18.55;100.00;97741.69;136752;1279;22242;-81
2023/08/07 09:16:16;;;;;;;4.30;2.00;;;;;;;18.53;100.00;97745.30;136780;1279;22273;-81
2023/08/07 09:19:18;;;;;;;3.60;2.40;;;;;;;18.44;100.00;97750.91;136805;1279;22189;-83
2023/08/07 09:22:21;;;;;;;2.90;2.60;;;;;;;18.35;100.00;97755.65;136814;1279;22733;-82
2023/08/07 09:25:28;;;;;;;2.80;2.60;;;;;;;18.25;100.00;97754.98;136803;1279;22240;-83
2023/08/07 09:28:33;;;;;;;4.50;2.60;;;;;;;18.06;100.00;97756.15;136728;1279;22711;-80
2023/08/07 09:31:36;;;;;;;3.10;2.40;;;;;;;18.07;100.00;97746.06;136823;1279;22807;-79
2023/08/07 09:34:38;;;;;;;2.10;2.00;;;;;;;18.26;100.00;97744.54;136746;1279;22297;-81
2023/08/07 09:37:43;;;;;;;2.60;2.30;;;;;;;18.44;100.00;97749.17;136776;1279;22441;-82
2023/08/07 09:40:46;;;;;;;4.80;2.60;;;;;;;18.56;100.00;97744.68;136793;1279;22193;-81
2023/08/07 09:43:48;;;;;;;2.80;2.40;;;;;;;18.77;100.00;97740.55;136792;1268;22228;-83
2023/08/07 09:46:51;;;;;;;5.20;2.20;;;;;;;18.92;100.00;97745.25;136836;1276;22256;-83
2023/08/07 09:49:57;;;;;;;5.20;2.90;;;;;;;19.02;100.00;97751.20;136828;1279;22246;-83
2023/08/07 09:53:02;;;;;;;13.40;3.20;;;;;;;19.21;100.00;97758.23;136748;1279;22228;-81
2023/08/07 09:56:04;;;;;;;5.80;2.80;;;;;;;19.47;100.00;97759.67;136812;1279;22190;-81
2023/08/07 09:59:07;;;;;;;9.40;3.20;;;;;;;19.75;100.00;97762.22;136697;1279;22361;-83
2023/08/07 10:02:11;;;;;;;4.10;3.10;;;;;;;19.97;100.00;97762.17;136837;1279;22857;-83
2023/08/07 10:05:13;;;;;;;6.40;2.60;;;;;;;20.16;100.00;97763.64;136807;1279;22216;-82
2023/08/07 10:08:16;;;;;;;2.40;2.20;;;;;;;20.26;100.00;97765.70;136805;1279;22241;-82
2023/08/07 10:11:19;;;;;;;2.80;2.60;;;;;;;20.47;100.00;97765.52;136779;1279;22273;-84
2023/08/07 10:14:22;;;;;;;6.00;2.50;;;;;;;20.42;100.00;97775.96;136800;1279;22370;-82
2023/08/07 10:17:24;;;;;;;7.20;2.60;;;;;;;20.27;100.00;97777.66;136847;1279;22246;-83
2023/08/07 10:20:27;;;;;;;3.10;2.30;;;;;;;20.13;100.00;97775.25;136842;1279;22239;-84
2023/08/07 10:23:29;;;;;;;2.50;2.30;;;;;;;20.34;100.00;97777.86;136809;1279;22266;-82
2023/08/07 10:26:32;;;;;;;2.60;2.30;;;;;;;20.56;100.00;97778.16;136799;1279;22239;-83
2023/08/07 10:29:34;;;;;;;6.10;2.30;;;;;;;20.62;100.00;97771.88;136841;1279;22233;-81
2023/08/07 10:32:37;;;;;;;12.60;2.90;;;;;;;20.63;100.00;97775.69;136869;1279;22694;-71
2023/08/07 10:35:39;;;;;;;7.00;2.50;;;;;;;20.52;100.00;97777.27;136823;1279;22259;-81
2023/08/07 10:38:42;;;;;;;5.50;2.80;;;;;;;20.53;100.00;97777.23;136846;1279;22720;-80
2023/08/07 10:41:45;;;;;;;7.60;2.40;;;;;;;20.58;100.00;97780.00;136788;1279;22398;-80
2023/08/07 10:48:08;;;;;;;2.50;2.30;;;;;;;20.45;100.00;97784.98;136749;1279;22224;-81
2023/08/07 10:51:11;;;;;;;3.10;2.70;;;;;;;20.18;100.00;97790.40;136771;1260;22657;-83
2023/08/07 10:54:16;;;;;;;4.80;2.50;;;;;;;19.82;100.00;97794.38;136865;1279;22200;-82
2023/08/07 10:57:21;;;;;;;3.80;2.90;;;;;;;19.52;100.00;97799.17;136786;1274;22218;-81
2023/08/07 11:00:26;;;;;;;39.50;4.30;;;;;;;19.47;100.00;97799.53;136776;1279;22308;-83
2023/08/07 11:03:28;;;;;;;2.80;2.00;;;;;;;19.50;100.00;97798.88;136831;1279;23113;-82
2023/08/07 11:06:31;;;;;;;3.90;2.40;;;;;;;19.41;100.00;97800.63;136830;1279;22205;-81
2023/08/07 11:09:34;;;;;;;5.50;2.60;;;;;;;19.32;100.00;97801.18;136855;1279;22751;-82
2023/08/07 11:12:36;;;;;;;9.30;2.50;;;;;;;19.30;100.00;97803.91;136863;1279;22235;-81
2023/08/07 11:15:39;;;;;;;2.90;2.40;;;;;;;19.47;100.00;97802.17;136801;1279;22210;-82
2023/08/07 11:22:23;;;;;;;2.40;2.20;;;;;;;19.80;100.00;97798.20;136793;1279;22263;-83
2023/08/07 11:25:26;;;;;;;3.70;2.60;;;;;;;19.98;100.00;97791.09;136621;1279;22788;-82
2023/08/07 11:28:28;;;;;;;5.60;2.60;;;;;;;20.10;100.00;97799.23;136779;1279;22698;-82
2023/08/07 11:31:31;;;;;;;2.90;2.30;;;;;;;20.18;100.00;97799.77;136790;1279;22985;-81
2023/08/07 11:34:33;;;;;;;3.10;2.20;;;;;;;20.50;100.00;97798.39;136801;1279;22288;-83
2023/08/07 11:37:36;;;;;;;6.10;2.50;;;;;;;20.80;100.00;97806.41;136846;1279;22658;-82
2023/08/07 11:40:38;;;;;;;4.80;2.70;;;;;;;21.22;100.00;97814.03;136773;1279;22252;-81
2023/08/07 11:43:41;;;;;;;6.10;2.70;;;;;;;21.32;100.00;97822.23;136649;1279;22618;-82
2023/08/07 11:46:46;;;;;;;13.70;3.60;;;;;;;21.30;100.00;97828.16;136803;1279;22571;-81
2023/08/07 11:49:49;;;;;;;6.10;3.10;;;;;;;21.42;100.00;97832.21;136824;1279;22217;-82
2023/08/07 11:52:51;;;;;;;4.00;3.30;;;;;;;21.58;100.00;97827.90;136828;1279;22206;-85
2023/08/07 11:55:55;;;;;;;3.10;2.80;;;;;;;21.63;100.00;97832.08;136825;1279;22206;-82
2023/08/07 11:58:57;;;;;;;3.40;3.10;;;;;;;21.50;100.00;97831.45;136906;1279;22264;-82
2023/08/07 12:02:00;;;;;;;5.20;3.10;;;;;;;21.26;100.00;97833.67;136891;1279;22371;-82
2023/08/07 12:05:05;;;;;;;3.70;2.80;;;;;;;21.35;100.00;97826.87;136829;1279;22283;-82
2023/08/07 12:08:08;;;;;;;4.70;2.90;;;;;;;21.42;100.00;97830.59;136839;1279;22223;-82
2023/08/07 12:11:20;;;;;;;;;;;;;;;;;;;;;
2023/08/07 12:14:27;;;;;;;7.50;3.60;;;;;;;20.76;100.00;97834.73;137191;1273;23018;-83
2023/08/07 12:17:31;;;;;;;10.70;3.60;;;;;;;20.89;100.00;97823.50;137228;1274;22257;-84
2023/08/07 12:20:34;;;;;;;6.50;3.20;;;;;;;21.42;100.00;97819.44;137187;1275;22205;-83
2023/08/07 12:23:37;;;;;;;3.60;2.60;;;;;;;21.64;100.00;97827.95;137139;1275;22632;-83
2023/08/07 12:26:39;;;;;;;5.20;3.00;;;;;;;21.89;100.00;97829.77;137144;1275;22198;-84
2023/08/07 12:29:42;;;;;;;6.00;3.10;;;;;;;22.09;100.00;97827.36;137181;1275;22233;-85
2023/08/07 12:32:45;;;;;;;13.50;3.90;;;;;;;22.05;100.00;97831.30;137186;1275;22274;-81
2023/08/07 12:35:48;;;;;;;23.60;3.80;;;;;;;21.80;100.00;97829.34;137218;1275;22179;-80
2023/08/07 12:38:50;;;;;;;5.90;3.30;;;;;;;21.80;100.00;97827.73;137216;1275;22228;-78
2023/08/07 12:41:53;;;;;;;3.70;3.10;;;;;;;21.87;100.00;97822.80;137194;1263;22198;-81
2023/08/07 12:44:55;;;;;;;3.20;2.90;;;;;;;21.91;100.00;97823.13;137216;1275;22685;-82
2023/08/07 12:47:58;;;;;;;4.90;3.60;;;;;;;21.80;100.00;97821.73;137254;1275;22148;-80
2023/08/07 12:51:00;;;;;;;4.20;3.20;;;;;;;21.64;100.00;97822.10;137271;1275;22362;-82
2023/08/07 12:54:03;;;;;;;3.40;2.90;;;;;;;21.69;100.00;97825.09;137162;1275;22211;-80
2023/08/07 12:57:06;;;;;;;4.70;2.60;;;;;;;21.69;100.00;97830.75;137252;1275;22888;-82
2023/08/07 13:00:12;;;;;;;5.80;3.60;;;;;;;21.62;100.00;97825.37;137279;1275;22707;-83
2023/08/07 13:03:14;;;;;;;24.20;4.30;;;;;;;21.73;100.00;97822.60;137312;1275;22245;-83
2023/08/07 13:06:17;;;;;;;8.10;3.30;;;;;;;22.20;100.00;97826.27;137290;1275;22203;-81
2023/08/07 13:09:20;;;;;;;6.30;2.90;;;;;;;22.55;100.00;97838.48;137301;1274;22227;-83
2023/08/07 13:12:23;;;;;;;11.00;3.40;;;;;;;22.39;100.00;97847.60;137187;1275;22178;-81
2023/08/07 13:15:26;;;;;;;4.90;3.10;;;;;;;22.17;100.00;97845.73;137326;1275;22155;-82
2023/08/07 13:18:28;;;;;;;9.70;3.40;;;;;;;22.24;100.00;97844.34;137296;1275;22261;-82
2023/08/07 13:21:31;;;;;;;5.10;2.90;;;;;;;22.52;100.00;97844.67;137228;1275;22919;-81
2023/08/07 13:24:34;;;;;;;7.10;2.70;;;;;;;22.60;100.00;97841.61;137277;1275;22269;-81
2023/08/07 13:27:36;;;;;;;5.50;2.70;;;;;;;22.62;100.00;97849.50;137273;1275;22678;-81
2023/08/07 13:30:39;;;;;;;4.50;3.10;;;;;;;22.51;100.00;97850.70;137239;1275;22212;-82
2023/08/07 13:33:41;;;;;;;6.20;3.50;;;;;;;22.59;100.00;97849.60;137190;1274;22340;-81
2023/08/07 13:36:44;;;;;;;4.20;3.20;;;;;;;22.74;100.00;97852.20;137231;1275;22650;-80
2023/08/07 13:39:51;;;;;;;5.30;2.70;;;;;;;22.76;100.00;97850.35;137283;1275;22914;-82
2023/08/07 13:42:54;;;;;;;8.90;3.30;;;;;;;22.40;100.00;97854.50;137317;1271;22212;-81
2023/08/07 13:45:59;;;;;;;9.70;3.70;;;;;;;22.24;100.00;97862.92;137339;1275;22236;-84
2023/08/07 13:49:02;;;;;;;7.00;3.60;;;;;;;22.01;100.00;97869.74;137309;1275;22245;-85
2023/08/07 13:52:04;;;;;;;7.70;3.00;;;;;;;21.75;100.00;97864.98;137301;1275;22368;-81
2023/08/07 13:55:08;;;;;;;33.60;5.20;;;;;;;21.85;100.00;97865.38;137301;1275;22192;-82
2023/08/07 13:58:11;;;;;;;7.80;3.30;;;;;;;21.76;100.00;97866.86;137262;1275;22480;-81
2023/08/07 14:01:14;;;;;;;18.00;4.50;;;;;;;21.57;100.00;97863.88;137242;1275;22182;-81
2023/08/07 14:04:16;;;;;;;10.40;3.70;;;;;;;21.83;100.00;97863.35;137398;1274;22178;-83